Time;durP1;ratioP1;P1;durP2;ratioP2;P2;SDS_P1;SDS_P2;PMS_P1;PMS_P2;Temp;Humidity;BMP_temperature;BMP_pressure;BME280_temperature;BME280_humidity;BME280_pressure;Samples;Min_cycle;Max_cycle;Signal;HPM_P1;HPM_P2
2024/01/19 00:01:26;;;;;;;;;;;;;;;6.00;100.00;97310.98;109499;1252;60012;-67
2024/01/19 00:03:54;;;;;;;;;;;;;;;6.16;100.00;97317.10;109386;1253;76011;-66
2024/01/19 00:06:21;;;;;;;;;;;;;;;6.22;100.00;97319.82;109534;1252;68151;-66
2024/01/19 00:08:49;;;;;;;;;;;;;;;6.14;100.00;97319.66;109465;1252;71489;-67
2024/01/19 00:11:18;;;;;;;;;;;;;;;6.16;100.00;97327.11;109504;1253;62323;-67
2024/01/19 00:13:45;;;;;;;;;;;;;;;6.27;100.00;97329.56;109226;1253;59329;-66
2024/01/19 00:16:13;;;;;;;;;;;;;;;6.24;100.00;97335.30;109518;1253;75128;-66
2024/01/19 00:18:40;;;;;;;;;;;;;;;6.41;100.00;97342.13;109518;1252;67817;-66
2024/01/19 00:21:08;;;;;;;;;;;;;;;6.53;100.00;97346.39;109511;1252;71495;-67
2024/01/19 00:23:35;;;;;;;;;;;;;;;6.49;100.00;97349.15;109492;1253;60748;-66
2024/01/19 00:26:03;;;;;;;;;;;;;;;6.64;100.00;97350.27;109521;1254;62094;-68
2024/01/19 00:28:30;;;;;;;;;;;;;;;6.67;100.00;97352.07;109328;1252;74899;-67
2024/01/19 00:30:58;;;;;;;;;;;;;;;6.47;100.00;97354.66;109497;1252;71052;-67
2024/01/19 00:33:25;;;;;;;;;;;;;;;5.82;100.00;97353.76;109486;1253;72900;-67
2024/01/19 00:35:53;;;;;;;;;;;;;;;6.12;100.00;97357.18;109485;1253;60177;-67
2024/01/19 00:38:20;;;;;;;;;;;;;;;6.15;100.00;97358.88;109517;1252;59124;-67
2024/01/19 00:40:48;;;;;;;;;;;;;;;5.92;100.00;97355.98;109499;1253;75635;-69
2024/01/19 00:43:16;;;;;;;;;;;;;;;5.77;100.00;97361.34;109418;1253;69659;-68
2024/01/19 00:45:43;;;;;;;;;;;;;;;5.79;100.00;97362.70;109518;1252;74063;-68
2024/01/19 00:48:10;;;;;;;;;;;;;;;5.78;100.00;97368.20;109389;1251;60318;-68
2024/01/19 00:50:38;;;;;;;;;;;;;;;5.89;100.00;97369.04;109597;1251;59172;-69
2024/01/19 00:53:06;;;;;;;;;;;;;;;5.96;100.00;97373.49;109604;1251;76076;-69
2024/01/19 00:55:33;;;;;;;;;;;;;;;5.88;100.00;97376.35;109619;1251;67673;-69
2024/01/19 00:58:01;;;;;;;;;;;;;;;6.07;100.00;97378.38;109619;1251;75001;-68
2024/01/19 01:00:28;;;;;;;;;;;;;;;6.23;100.00;97377.09;109601;1251;60746;-67
2024/01/19 01:02:57;;;;;;;;;;;;;;;6.04;100.00;97382.33;109609;1251;61216;-68
2024/01/19 01:05:24;;;;;;;;;;;;;;;5.98;100.00;97384.72;109642;1251;75418;-69
2024/01/19 01:07:52;;;;;;;;;;;;;;;5.85;100.00;97385.20;109580;1251;70707;-69
2024/01/19 01:10:20;;;;;;;;;;;;;;;5.97;100.00;97381.52;109587;1251;72670;-69
2024/01/19 01:12:47;;;;;;;;;;;;;;;5.98;100.00;97388.86;109302;1254;61326;-69
2024/01/19 01:15:15;;;;;;;;;;;;;;;6.02;100.00;97389.27;109635;1251;58924;-68
2024/01/19 01:17:42;;;;;;;;;;;;;;;5.86;100.00;97388.11;109356;1256;74120;-69
2024/01/19 01:20:11;;;;;;;;;;;;;;;5.61;100.00;97384.86;109624;1251;68155;-68
2024/01/19 01:22:38;;;;;;;;;;;;;;;5.67;100.00;97386.48;109608;1251;74900;-69
2024/01/19 01:25:06;;;;;;;;;;;;;;;5.60;100.00;97388.95;109634;1253;61119;-68
2024/01/19 01:27:33;;;;;;;;;;;;;;;5.60;100.00;97389.48;109623;1251;62207;-68
2024/01/19 01:30:07;;;;;;;;;;;;;;;5.54;100.00;97381.96;109603;1251;73989;-69
2024/01/19 01:32:34;;;;;;;;;;;;;;;5.55;100.00;97383.50;109643;1251;69891;-69
2024/01/19 01:35:02;;;;;;;;;;;;;;;5.56;100.00;97391.20;109568;1252;72891;-68
2024/01/19 01:37:30;;;;;;;;;;;;;;;5.27;100.00;97390.44;109604;1251;60304;-69
2024/01/19 01:39:57;;;;;;;;;;;;;;;5.43;100.00;97393.78;109630;1251;60357;-68
2024/01/19 01:42:25;;;;;;;;;;;;;;;5.27;100.00;97392.52;109595;1251;74141;-68
2024/01/19 01:44:52;;;;;;;;;;;;;;;5.13;100.00;97398.14;109608;1251;67644;-68
2024/01/19 01:47:20;;;;;;;;;;;;;;;5.02;100.00;97399.51;109627;1251;72777;-69
2024/01/19 01:49:47;;;;;;;;;;;;;;;5.07;100.00;97403.20;109632;1253;63147;-68
2024/01/19 01:52:15;;;;;;;;;;;;;;;5.20;100.00;97408.02;109655;1251;59687;-67
2024/01/19 01:54:42;;;;;;;;;;;;;;;5.09;100.00;97405.61;109471;1251;77008;-66
2024/01/19 01:57:10;;;;;;;;;;;;;;;5.25;100.00;97406.23;109638;1251;69896;-68
2024/01/19 01:59:37;;;;;;;;;;;;;;;5.44;100.00;97404.15;109474;1253;71828;-69
2024/01/19 02:02:05;;;;;;;;;;;;;;;5.38;100.00;97409.49;109346;1256;61469;-69
2024/01/19 02:04:33;;;;;;;;;;;;;;;5.64;100.00;97409.06;109358;1254;62047;-69
2024/01/19 02:07:01;;;;;;;;;;;;;;;5.47;100.00;97406.73;109408;1254;74059;-69
2024/01/19 02:09:29;;;;;;;;;;;;;;;5.62;100.00;97405.77;109385;1254;67653;-68
2024/01/19 02:11:57;;;;;;;;;;;;;;;5.57;100.00;97408.98;109430;1254;70605;-69
2024/01/19 02:14:25;;;;;;;;;;;;;;;5.35;100.00;97408.86;109344;1256;63080;-68
2024/01/19 02:16:52;;;;;;;;;;;;;;;5.22;100.00;97416.73;109417;1254;60563;-69
2024/01/19 02:19:20;;;;;;;;;;;;;;;5.23;100.00;97423.58;109403;1254;74642;-68
2024/01/19 02:21:48;;;;;;;;;;;;;;;5.29;100.00;97427.33;109385;1254;70886;-68
2024/01/19 02:24:16;;;;;;;;;;;;;;;5.58;100.00;97437.88;109457;1254;73505;-69
2024/01/19 02:26:43;;;;;;;;;;;;;;;5.63;100.00;97444.30;109195;1258;60863;-68
2024/01/19 02:29:11;;;;;;;;;;;;;;;5.67;100.00;97446.41;109374;1254;61028;-68
2024/01/19 02:31:39;;;;;;;;;;;;;;;5.92;100.00;97450.31;109618;1251;73773;-68
2024/01/19 02:34:06;;;;;;;;;;;;;;;5.93;100.00;97460.20;109657;1251;67652;-67
2024/01/19 02:36:35;;;;;;;;;;;;;;;5.63;100.00;97467.94;109349;1250;71905;-69
2024/01/19 02:39:03;;;;;;;;;;;;;;;5.95;100.00;97472.06;109601;1250;59476;-69
2024/01/19 02:41:31;;;;;;;;;;;;;;;5.98;100.00;97484.59;109670;1251;58947;-66
2024/01/19 02:43:59;;;;;;;;;;;;;;;6.00;100.00;97493.67;109617;1251;74716;-66
2024/01/19 02:46:26;;;;;;;;;;;;;;;5.96;100.00;97502.15;109649;1251;69410;-67
2024/01/19 02:48:54;;;;;;;;;;;;;;;5.99;100.00;97507.53;109611;1251;70952;-68
2024/01/19 02:51:21;;;;;;;;;;;;;;;6.08;100.00;97513.14;109560;1251;59331;-69
2024/01/19 02:53:49;;;;;;;;;;;;;;;6.08;100.00;97519.30;109645;1250;59994;-65
2024/01/19 02:56:16;;;;;;;;;;;;;;;6.13;100.00;97524.88;109485;1253;74626;-69
2024/01/19 02:58:44;;;;;;;;;;;;;;;6.05;100.00;97533.86;109369;1254;70570;-68
2024/01/19 03:01:11;;;;;;;;;;;;;;;6.05;100.00;97536.80;109071;1254;74099;-68
2024/01/19 03:03:39;;;;;;;;;;;;;;;6.03;100.00;97541.02;109411;1254;61448;-68
2024/01/19 03:06:06;;;;;;;;;;;;;;;5.91;100.00;97546.36;109194;1253;59525;-67
2024/01/19 03:08:34;;;;;;;;;;;;;;;6.00;100.00;97552.09;109363;1254;74156;-68
2024/01/19 03:11:02;;;;;;;;;;;;;;;6.08;100.00;97558.35;109410;1253;71053;-68
2024/01/19 03:13:29;;;;;;;;;;;;;;;6.15;100.00;97563.01;109359;1256;71577;-68
2024/01/19 03:15:58;;;;;;;;;;;;;;;6.21;100.00;97568.63;109366;1254;61072;-68
2024/01/19 03:18:25;;;;;;;;;;;;;;;6.08;100.00;97571.20;109405;1254;59915;-68
2024/01/19 03:20:53;;;;;;;;;;;;;;;6.12;100.00;97577.46;109211;1254;73773;-68
2024/01/19 03:23:20;;;;;;;;;;;;;;;6.10;100.00;97583.44;109384;1253;69202;-68
2024/01/19 03:25:48;;;;;;;;;;;;;;;6.20;100.00;97585.63;109366;1254;73192;-65
2024/01/19 03:28:15;;;;;;;;;;;;;;;6.11;100.00;97588.70;109565;1253;62278;-67
2024/01/19 03:30:43;;;;;;;;;;;;;;;6.06;100.00;97587.87;109591;1250;60937;-68
2024/01/19 03:33:10;;;;;;;;;;;;;;;6.01;100.00;97592.46;109607;1251;74004;-68
2024/01/19 03:35:38;;;;;;;;;;;;;;;6.06;100.00;97591.45;109661;1251;66812;-67
2024/01/19 03:38:05;;;;;;;;;;;;;;;6.08;100.00;97595.70;109408;1251;72551;-68
2024/01/19 03:40:33;;;;;;;;;;;;;;;5.99;100.00;97602.01;109619;1251;60198;-68
2024/01/19 03:43:01;;;;;;;;;;;;;;;6.02;100.00;97608.19;109335;1250;59097;-67
2024/01/19 03:45:28;;;;;;;;;;;;;;;6.07;100.00;97611.36;109625;1250;76247;-68
2024/01/19 03:47:56;;;;;;;;;;;;;;;6.04;100.00;97616.05;109619;1250;68687;-67
2024/01/19 03:50:23;;;;;;;;;;;;;;;6.15;100.00;97625.83;109605;1251;71550;-67
2024/01/19 03:52:51;;;;;;;;;;;;;;;6.19;100.00;97626.02;109574;1253;59511;-67
2024/01/19 03:55:18;;;;;;;;;;;;;;;5.99;100.00;97635.66;109569;1253;58856;-67
2024/01/19 03:57:46;;;;;;;;;;;;;;;5.97;100.00;97641.80;109604;1251;76915;-67
2024/01/19 04:00:13;;;;;;;;;;;;;;;5.89;100.00;97645.58;109658;1250;70172;-67
2024/01/19 04:02:41;;;;;;;;;;;;;;;5.88;100.00;97656.34;109637;1251;71497;-67
2024/01/19 04:05:08;;;;;;;;;;;;;;;5.95;100.00;97662.80;109626;1253;60285;-66
2024/01/19 04:07:36;;;;;;;;;;;;;;;5.93;100.00;97671.52;109665;1251;59881;-67
2024/01/19 04:10:04;;;;;;;;;;;;;;;5.96;100.00;97681.06;109621;1250;74835;-67
2024/01/19 04:12:31;;;;;;;;;;;;;;;5.82;100.00;97695.33;109357;1250;70673;-68
2024/01/19 04:15:01;;;;;;;;;;;;;;;5.46;100.00;97701.13;109310;1251;71252;-68
2024/01/19 04:17:29;;;;;;;;;;;;;;;5.68;100.00;97707.64;109617;1251;61843;-68
2024/01/19 04:19:57;;;;;;;;;;;;;;;5.73;100.00;97715.45;109604;1251;61708;-67
2024/01/19 04:22:25;;;;;;;;;;;;;;;5.65;100.00;97712.53;109268;1251;75090;-68
2024/01/19 04:24:53;;;;;;;;;;;;;;;5.63;100.00;97712.80;109641;1251;70291;-67
2024/01/19 04:27:21;;;;;;;;;;;;;;;5.47;100.00;97720.35;109679;1251;74880;-67
2024/01/19 04:29:48;;;;;;;;;;;;;;;5.24;100.00;97732.55;109356;1254;61920;-66
2024/01/19 04:32:16;;;;;;;;;;;;;;;5.22;100.00;97742.50;109629;1251;58998;-67
2024/01/19 04:34:43;;;;;;;;;;;;;;;5.38;100.00;97751.24;109644;1253;75422;-67
2024/01/19 04:37:11;;;;;;;;;;;;;;;5.32;100.00;97760.30;109595;1251;68512;-67
2024/01/19 04:39:38;;;;;;;;;;;;;;;5.18;100.00;97767.27;109629;1251;73668;-67
2024/01/19 04:42:06;;;;;;;;;;;;;;;5.34;100.00;97773.33;109623;1251;60500;-67
2024/01/19 04:44:34;;;;;;;;;;;;;;;5.23;100.00;97783.67;109619;1251;61424;-66
2024/01/19 04:47:02;;;;;;;;;;;;;;;5.28;100.00;97790.23;109648;1250;74020;-66
2024/01/19 04:49:29;;;;;;;;;;;;;;;5.35;100.00;97799.02;109668;1251;69254;-69
2024/01/19 04:51:57;;;;;;;;;;;;;;;5.53;100.00;97807.21;109526;1251;73348;-69
2024/01/19 04:54:25;;;;;;;;;;;;;;;5.39;100.00;97813.83;109609;1251;63272;-69
2024/01/19 04:56:52;;;;;;;;;;;;;;;5.41;100.00;97820.23;109626;1251;59677;-69
2024/01/19 04:59:20;;;;;;;;;;;;;;;5.43;100.00;97828.68;109668;1250;75165;-69
2024/01/19 05:01:48;;;;;;;;;;;;;;;5.33;100.00;97835.85;109413;1250;70291;-69
2024/01/19 05:04:15;;;;;;;;;;;;;;;5.08;100.00;97841.51;109641;1251;73318;-69
2024/01/19 05:06:43;;;;;;;;;;;;;;;4.85;100.00;97844.36;109613;1251;59387;-69
2024/01/19 05:09:10;;;;;;;;;;;;;;;4.78;100.00;97844.45;109655;1251;59043;-69
2024/01/19 05:11:38;;;;;;;;;;;;;;;4.88;100.00;97836.52;109676;1251;76777;-67
2024/01/19 05:14:06;;;;;;;;;;;;;;;4.87;100.00;97855.86;109608;1250;70747;-69
2024/01/19 05:16:34;;;;;;;;;;;;;;;4.85;100.00;97858.04;109574;1251;71967;-69
2024/01/19 05:19:02;;;;;;;;;;;;;;;4.70;100.00;97858.10;109627;1250;61871;-68
2024/01/19 05:21:29;;;;;;;;;;;;;;;4.57;100.00;97862.87;109670;1251;60015;-68
2024/01/19 05:23:57;;;;;;;;;;;;;;;4.46;100.00;97868.36;109304;1250;73330;-68
2024/01/19 05:26:25;;;;;;;;;;;;;;;4.31;100.00;97872.45;109617;1250;67998;-68
2024/01/19 05:28:52;;;;;;;;;;;;;;;4.44;100.00;97884.02;109383;1251;73272;-68
2024/01/19 05:31:20;;;;;;;;;;;;;;;4.49;100.00;97894.11;109641;1251;62899;-68
2024/01/19 05:33:47;;;;;;;;;;;;;;;4.57;100.00;97901.20;109624;1251;59917;-68
2024/01/19 05:36:15;;;;;;;;;;;;;;;4.61;100.00;97912.48;109648;1251;75955;-68
2024/01/19 05:38:42;;;;;;;;;;;;;;;4.50;100.00;97921.70;109695;1250;69010;-68
2024/01/19 05:41:10;;;;;;;;;;;;;;;4.46;100.00;97930.33;109326;1251;73215;-68
2024/01/19 05:43:37;;;;;;;;;;;;;;;4.30;100.00;97934.98;109577;1253;60741;-68
2024/01/19 05:46:05;;;;;;;;;;;;;;;4.08;100.00;97935.56;109670;1251;59816;-68
2024/01/19 05:48:32;;;;;;;;;;;;;;;4.18;100.00;97944.74;109407;1251;73616;-69
2024/01/19 05:51:00;;;;;;;;;;;;;;;4.23;100.00;97945.11;109672;1250;68052;-69
2024/01/19 05:53:28;;;;;;;;;;;;;;;4.20;100.00;97950.71;109593;1250;71334;-68
2024/01/19 05:55:55;;;;;;;;;;;;;;;4.09;100.00;97954.45;109668;1251;62273;-67
2024/01/19 05:58:23;;;;;;;;;;;;;;;3.90;100.00;97951.01;109619;1250;59772;-68
2024/01/19 06:00:51;;;;;;;;;;;;;;;3.81;100.00;97955.79;109629;1251;73769;-68
2024/01/19 06:03:18;;;;;;;;;;;;;;;3.71;100.00;97952.45;109133;1255;67091;-69
2024/01/19 06:05:46;;;;;;;;;;;;;;;3.73;100.00;97955.85;109027;1255;72439;-67
2024/01/19 06:08:14;;;;;;;;;;;;;;;3.62;100.00;97960.02;109214;1256;59584;-68
2024/01/19 06:10:41;;;;;;;;;;;;;;;3.76;100.00;97968.95;108491;1255;1002479;-67
2024/01/19 06:13:09;;;;;;;;;;;;;;;3.84;100.00;97979.29;109224;1256;76240;-69
2024/01/19 06:15:36;;;;;;;;;;;;;;;3.66;100.00;97982.64;109076;1256;70183;-68
2024/01/19 06:18:04;;;;;;;;;;;;;;;3.78;100.00;97991.85;109260;1255;72998;-68
2024/01/19 06:20:33;;;;;;;;;;;;;;;3.78;100.00;97999.45;109240;1256;59550;-68
2024/01/19 06:23:00;;;;;;;;;;;;;;;3.87;100.00;98008.14;109058;1257;62080;-68
2024/01/19 06:25:28;;;;;;;;;;;;;;;3.71;100.00;98016.86;109158;1257;76920;-67
2024/01/19 06:27:57;;;;;;;;;;;;;;;3.57;100.00;98029.64;109088;1257;67941;-67
2024/01/19 06:30:24;;;;;;;;;;;;;;;3.45;100.00;98034.05;109023;1257;73507;-67
2024/01/19 06:32:52;;;;;;;;;;;;;;;3.49;100.00;98037.65;109117;1258;61221;-68
2024/01/19 06:35:19;;;;;;;;;;;;;;;3.55;100.00;98043.25;109149;1256;59150;-68
2024/01/19 06:37:47;;;;;;;;;;;;;;;3.58;100.00;98043.96;109130;1256;73742;-67
2024/01/19 06:40:14;;;;;;;;;;;;;;;3.45;100.00;98045.33;109148;1253;68762;-68
2024/01/19 06:42:45;;;;;;;;;;;;;;;3.43;100.00;98053.91;109450;1254;71045;-68
2024/01/19 06:45:18;;;;;;;;;;;;;;;3.60;100.00;98061.94;109333;1255;61801;-67
2024/01/19 06:47:46;;;;;;;;;;;;;;;3.52;100.00;98074.89;109323;1259;62139;-67
2024/01/19 06:50:13;;;;;;;;;;;;;;;3.56;100.00;98077.17;109458;1254;75341;-68
2024/01/19 06:52:41;;;;;;;;;;;;;;;3.73;100.00;98081.33;109441;1254;69471;-67
2024/01/19 06:55:08;;;;;;;;;;;;;;;3.95;100.00;98083.79;109436;1254;71492;-68
2024/01/19 06:57:36;;;;;;;;;;;;;;;3.85;100.00;98085.51;109524;1252;61293;-67
2024/01/19 07:00:04;;;;;;;;;;;;;;;3.85;100.00;98088.55;109645;1251;61997;-68
2024/01/19 07:02:31;;;;;;;;;;;;;;;3.96;100.00;98093.52;109660;1251;76191;-66
2024/01/19 07:04:59;;;;;;;;;;;;;;;3.89;100.00;98101.61;109679;1250;69573;-67
2024/01/19 07:07:27;;;;;;;;;;;;;;;3.46;100.00;98101.59;109656;1250;72245;-67
2024/01/19 07:09:54;;;;;;;;;;;;;;;3.37;100.00;98108.98;109636;1251;61939;-67
2024/01/19 07:12:22;;;;;;;;;;;;;;;3.56;100.00;98117.39;109636;1253;61677;-68
2024/01/19 07:14:49;;;;;;;;;;;;;;;3.60;100.00;98127.04;109719;1251;75640;-68
2024/01/19 07:17:17;;;;;;;;;;;;;;;3.77;100.00;98131.92;109418;1250;68622;-68
2024/01/19 07:19:44;;;;;;;;;;;;;;;3.74;100.00;98138.35;109677;1251;74849;-68
2024/01/19 07:22:12;;;;;;;;;;;;;;;3.54;100.00;98140.29;109657;1251;60821;-68
2024/01/19 07:24:40;;;;;;;;;;;;;;;3.47;100.00;98146.70;109682;1251;59446;-68
2024/01/19 07:27:07;;;;;;;;;;;;;;;3.36;100.00;98149.05;109647;1250;76966;-68
2024/01/19 07:29:35;;;;;;;;;;;;;;;3.44;100.00;98160.72;109674;1251;68379;-68
2024/01/19 07:32:03;;;;;;;;;;;;;;;3.54;100.00;98160.03;109517;1250;73889;-68
2024/01/19 07:34:30;;;;;;;;;;;;;;;3.54;99.98;98159.65;109599;1251;62483;-67
2024/01/19 07:36:58;;;;;;;;;;;;;;;3.67;99.02;98160.68;109398;1250;62288;-68
2024/01/19 07:39:26;;;;;;;;;;;;;;;3.71;98.22;98155.88;109703;1251;76866;-68
2024/01/19 07:41:54;;;;;;;;;;;;;;;3.62;97.60;98151.05;109654;1251;69850;-68
2024/01/19 07:44:21;;;;;;;;;;;;;;;3.61;97.45;98153.86;109649;1251;72618;-68
2024/01/19 07:46:49;;;;;;;;;;;;;;;3.55;98.30;98153.35;109624;1251;60740;-67
2024/01/19 07:49:21;;;;;;;;;;;;;;;3.80;96.83;98154.30;109700;1250;59238;-67
2024/01/19 07:51:49;;;;;;;;;;;;;;;3.66;96.39;98167.89;109382;1250;76148;-67
2024/01/19 07:54:17;;;;;;;;;;;;;;;3.56;96.07;98174.63;109635;1251;68430;-68
2024/01/19 07:56:45;;;;;;;;;;;;;;;3.58;95.72;98179.98;109678;1251;72072;-67
2024/01/19 07:59:13;;;;;;;;;;;;;;;3.43;94.70;98180.59;109602;1253;63178;-66
2024/01/19 08:01:40;;;;;;;;;;;;;;;4.08;91.02;98191.14;109646;1251;61967;-67
2024/01/19 08:04:08;;;;;;;;;;;;;;;4.12;89.42;98193.98;109526;1251;75294;-68
2024/01/19 08:06:36;;;;;;;;;;;;;;;3.54;93.17;98199.02;109643;1251;67682;-66
2024/01/19 08:09:05;;;;;;;;;;;;;;;3.32;93.87;98206.20;109659;1250;70950;-66
2024/01/19 08:11:32;;;;;;;;;;;;;;;3.07;95.07;98213.81;109299;1250;61987;-66
2024/01/19 08:14:00;;;;;;;;;;;;;;;3.18;94.37;98218.00;109631;1251;60509;-67
2024/01/19 08:16:27;;;;;;;;;;;;;;;3.22;94.15;98218.59;109675;1251;74917;-67
2024/01/19 08:18:56;;;;;;;;;;;;;;;3.24;92.41;98225.32;109245;1256;68588;-67
2024/01/19 08:21:24;;;;;;;;;;;;;;;3.29;90.76;98229.96;109195;1255;72058;-67
2024/01/19 08:23:51;;;;;;;;;;;;;;;3.34;91.05;98233.06;109099;1256;59545;-67
2024/01/19 08:26:19;;;;;;;;;;;;;;;3.70;89.43;98239.45;109107;1256;59908;-67
2024/01/19 08:28:47;;;;;;;;;;;;;;;3.61;88.35;98250.19;109065;1262;73589;-67
2024/01/19 08:31:14;;;;;;;;;;;;;;;4.04;87.27;98257.05;109013;1256;68278;-68
2024/01/19 08:33:42;;;;;;;;;;;;;;;4.56;80.09;98268.63;109133;1257;73342;-68
2024/01/19 08:36:09;;;;;;;;;;;;;;;4.55;80.41;98285.73;109035;1257;61988;-68
2024/01/19 08:38:37;;;;;;;;;;;;;;;4.60;79.19;98297.81;109105;1256;59500;-68
2024/01/19 08:41:04;;;;;;;;;;;;;;;4.58;80.65;98298.59;109026;1256;73999;-68
2024/01/19 08:43:32;;;;;;;;;;;;;;;4.95;78.69;98304.80;109100;1256;69143;-68
2024/01/19 08:46:00;;;;;;;;;;;;;;;4.83;78.82;98307.30;109072;1256;72910;-69
2024/01/19 08:48:27;;;;;;;;;;;;;;;4.86;78.08;98303.62;108807;1262;59581;-67
2024/01/19 08:50:57;;;;;;;;;;;;;;;4.68;75.60;98313.27;109018;1257;59850;-67
2024/01/19 08:53:24;;;;;;;;;;;;;;;5.07;75.92;98315.41;109030;1259;74050;-67
2024/01/19 08:55:52;;;;;;;;;;;;;;;5.25;74.33;98321.78;109161;1255;67644;-68
2024/01/19 08:58:20;;;;;;;;;;;;;;;5.18;72.39;98330.02;109103;1256;71427;-67
2024/01/19 09:00:47;;;;;;;;;;;;;;;5.00;71.13;98333.73;109232;1256;61894;-67
2024/01/19 09:03:16;;;;;;;;;;;;;;;5.05;70.91;98329.17;109240;1256;61869;-68
2024/01/19 09:05:45;;;;;;;;;;;;;;;5.31;70.88;98326.85;109171;1256;75957;-68
2024/01/19 09:08:13;;;;;;;;;;;;;;;5.39;68.88;98318.05;109081;1255;69334;-68
2024/01/19 09:10:41;;;;;;;;;;;;;;;5.59;68.76;98318.54;109259;1255;75030;-68
2024/01/19 09:13:08;;;;;;;;;;;;;;;5.64;65.72;98325.09;109176;1255;61223;-68
2024/01/19 09:15:35;;;;;;;;;;;;;;;5.55;64.41;98330.81;109041;1256;59586;-68
2024/01/19 09:18:03;;;;;;;;;;;;;;;5.75;65.79;98335.03;109212;1256;76944;-67
2024/01/19 09:20:31;;;;;;;;;;;;;;;5.89;65.26;98341.29;109297;1259;71103;-67
2024/01/19 09:22:58;;;;;;;;;;;;;;;5.89;65.66;98346.27;109389;1251;72091;-67
2024/01/19 09:25:26;;;;;;;;;;;;;;;5.66;64.40;98346.61;109637;1253;61041;-67
2024/01/19 09:27:53;;;;;;;;;;;;;;;5.73;64.05;98348.55;109647;1251;61064;-66
2024/01/19 09:30:21;;;;;;;;;;;;;;;5.47;63.98;98343.17;109636;1250;75369;-67
2024/01/19 09:32:48;;;;;;;;;;;;;;;5.59;64.52;98353.61;109659;1251;67080;-67
2024/01/19 09:35:16;;;;;;;;;;;;;;;5.50;63.44;98354.23;108672;1251;1002958;-68
2024/01/19 09:37:44;;;;;;;;;;;;;;;5.49;64.80;98354.85;109632;1253;63108;-68
2024/01/19 09:40:11;;;;;;;;;;;;;;;5.08;64.01;98351.27;109661;1251;60746;-67
2024/01/19 09:42:39;;;;;;;;;;;;;;;4.99;64.40;98352.77;109521;1250;73985;-65
2024/01/19 09:45:07;;;;;;;;;;;;;;;5.13;65.05;98359.00;109643;1250;69460;-65
2024/01/19 09:47:42;;;;;;;;;;;;;;;4.92;66.43;98371.87;109574;1252;71773;-66
2024/01/19 09:50:10;;;;;;;;;;;;;;;4.67;67.53;98381.68;109546;1253;59583;-69
2024/01/19 09:52:42;;;;;;;;;;;;;;;4.52;67.61;98375.93;109187;1253;58899;-67
2024/01/19 09:55:13;;;;;;;;;;;;;;;4.61;67.84;98380.73;109454;1253;162203;-66
2024/01/19 09:57:49;;;;;;;;;;;;;;;4.56;68.27;98382.58;109593;1253;67605;-66
2024/01/19 10:00:17;;;;;;;;;;;;;;;4.43;68.33;98385.95;109303;1253;71867;-65
2024/01/19 10:02:46;;;;;;;;;;;;;;;4.57;68.47;98389.14;109570;1253;61496;-66
2024/01/19 10:05:14;;;;;;;;;;;;;;;4.49;68.70;98389.87;109549;1253;58907;-67
2024/01/19 10:07:42;;;;;;;;;;;;;;;4.61;69.01;98393.61;109283;1253;74605;-66
2024/01/19 10:10:10;;;;;;;;;;;;;;;4.72;68.02;98407.28;109569;1252;71060;-67
2024/01/19 10:12:38;;;;;;;;;;;;;;;4.69;66.75;98413.29;109538;1253;74962;-66
2024/01/19 10:15:08;;;;;;;;;;;;;;;4.55;66.10;98417.91;109530;1253;63155;-67
2024/01/19 10:17:35;;;;;;;;;;;;;;;4.74;66.10;98420.23;109217;1253;59726;-67
2024/01/19 10:20:03;;;;;;;;;;;;;;;4.48;64.21;98416.91;109574;1254;76904;-67
2024/01/19 10:22:32;;;;;;;;;;;;;;;4.68;63.99;98423.33;109253;1253;66648;-66
2024/01/19 10:25:00;;;;;;;;;;;;;;;4.84;65.03;98434.30;109548;1253;72139;-67
2024/01/19 10:27:41;;;;;;;;;;;;;;;5.04;64.22;98439.69;109528;1253;60530;-65
2024/01/19 10:30:12;;;;;;;;;;;;;;;5.07;63.39;98451.27;109554;1253;58995;-66
2024/01/19 10:32:40;;;;;;;;;;;;;;;4.97;62.45;98456.77;109553;1254;73293;-65
2024/01/19 10:35:11;;;;;;;;;;;;;;;4.95;63.24;98450.15;109549;1253;71023;-66
2024/01/19 10:37:39;;;;;;;;;;;;;;;4.94;63.46;98448.10;109570;1253;71891;-65
2024/01/19 10:40:12;;;;;;;;;;;;;;;4.91;62.86;98460.02;109503;1253;61957;-66
2024/01/19 10:42:40;;;;;;;;;;;;;;;5.05;63.19;98464.98;109593;1253;59082;-64
2024/01/19 10:45:15;;;;;;;;;;;;;;;5.20;63.10;98463.70;109594;1253;74570;-64
2024/01/19 10:47:43;;;;;;;;;;;;;;;5.20;63.31;98459.40;109614;1251;68904;-66
2024/01/19 10:50:13;;;;;;;;;;;;;;;5.43;63.82;98464.36;109597;1254;70781;-64
2024/01/19 10:52:42;;;;;;;;;;;;;;;5.23;62.30;98459.73;109578;1256;59084;-67
2024/01/19 10:55:10;;;;;;;;;;;;;;;5.19;62.87;98471.13;109629;1251;59766;-67
2024/01/19 10:57:37;;;;;;;;;;;;;;;5.28;63.13;98469.66;109612;1252;76932;-67
2024/01/19 11:00:21;;;;;;;;;;;;;;;5.27;63.20;98469.27;109526;1257;66613;-67
2024/01/19 11:02:49;;;;;;;;;;;;;;;5.37;63.10;98466.59;109244;1252;72842;-67
2024/01/19 11:05:18;;;;;;;;;;;;;;;5.41;63.21;98466.91;109531;1253;60664;-66
2024/01/19 11:07:48;;;;;;;;;;;;;;;5.05;61.35;98488.21;109518;1257;59798;-65
2024/01/19 11:10:16;;;;;;;;;;;;;;;4.94;61.96;98498.59;109562;1254;75930;-67
2024/01/19 11:12:47;;;;;;;;;;;;;;;5.06;63.09;98493.86;109600;1251;68169;-65
2024/01/19 11:15:16;;;;;;;;;;;;;;;5.10;62.93;98487.18;109585;1251;74781;-66
2024/01/19 11:17:44;;;;;;;;;;;;;;;5.12;62.97;98495.50;109574;1256;60128;-67
2024/01/19 11:20:12;;;;;;;;;;;;;;;4.90;63.06;98500.70;109512;1253;61405;-64
2024/01/19 11:22:39;;;;;;;;;;;;;;;4.88;63.34;98511.58;109465;1251;76984;-66
2024/01/19 11:25:12;;;;;;;;;;;;;;;4.72;64.54;98505.27;109637;1251;69077;-65
2024/01/19 11:27:41;;;;;;;;;;;;;;;4.77;64.23;98504.33;109575;1251;73785;-65
2024/01/19 11:30:14;;;;;;;;;;;;;;;4.81;63.64;98504.50;109459;1257;60034;-67
2024/01/19 11:32:41;;;;;;;;;;;;;;;5.03;63.50;98508.98;109610;1252;62089;-67
2024/01/19 11:35:13;;;;;;;;;;;;;;;5.04;63.62;98512.66;109569;1256;76033;-70
2024/01/19 11:37:44;;;;;;;;;;;;;;;5.20;62.81;98520.50;109625;1253;69904;-69
2024/01/19 11:40:24;;;;;;;;;;;;;;;5.04;61.84;98523.84;109552;1251;74249;-67
2024/01/19 11:42:51;;;;;;;;;;;;;;;4.64;63.02;98521.11;109339;1254;63019;-70
2024/01/19 11:45:39;;;;;;;;;;;;;;;4.60;63.30;98525.95;109483;1251;59934;-70
2024/01/19 11:48:31;;;;;;;;;;;;;;;4.74;63.57;98527.89;109623;1251;76916;-68
2024/01/19 11:50:59;;;;;;;;;;;;;;;4.70;63.81;98520.70;109639;1251;67304;-68
2024/01/19 11:53:26;;;;;;;;;;;;;;;4.41;63.90;98522.64;109585;1251;72739;-67
2024/01/19 11:55:54;;;;;;;;;;;;;;;4.63;63.68;98530.20;109544;1253;61427;-69
2024/01/19 11:58:24;;;;;;;;;;;;;;;4.47;63.80;98527.00;109550;1252;58956;-67
2024/01/19 12:00:59;;;;;;;;;;;;;;;4.50;64.12;98531.41;109569;1257;74155;-68
2024/01/19 12:03:27;;;;;;;;;;;;;;;4.43;63.90;98527.73;109459;1254;70835;-67
2024/01/19 12:05:55;;;;;;;;;;;;;;;4.62;63.46;98523.12;109330;1253;74314;-68
2024/01/19 12:08:23;;;;;;;;;;;;;;;4.76;63.70;98515.69;109202;1253;63107;-67
2024/01/19 12:11:04;;;;;;;;;;;;;;;4.81;63.96;98513.04;109628;1251;58890;-67
2024/01/19 12:13:33;;;;;;;;;;;;;;;5.03;64.24;98517.39;109305;1251;75814;-66
2024/01/19 12:16:01;;;;;;;;;;;;;;;5.00;63.21;98519.41;109655;1251;67668;-67
2024/01/19 12:18:29;;;;;;;;;;;;;;;5.01;63.93;98517.80;109482;1251;74882;-67
2024/01/19 12:20:56;;;;;;;;;;;;;;;4.94;64.41;98518.38;109628;1251;60542;-67
2024/01/19 12:23:24;;;;;;;;;;;;;;;4.76;64.21;98517.48;109598;1252;60853;-67
2024/01/19 12:25:56;;;;;;;;;;;;;;;4.65;63.94;98518.52;109655;1251;76946;-66
2024/01/19 12:28:23;;;;;;;;;;;;;;;4.85;64.25;98519.94;109639;1251;71067;-68
2024/01/19 12:30:52;;;;;;;;;;;;;;;4.89;64.44;98525.79;109631;1251;73140;-67
2024/01/19 12:33:29;;;;;;;;;;;;;;;4.87;65.04;98529.21;109597;1253;60184;-69
2024/01/19 12:36:03;;;;;;;;;;;;;;;4.78;64.94;98527.22;109644;1251;60436;-69
2024/01/19 12:38:30;;;;;;;;;;;;;;;4.61;65.26;98532.27;109613;1251;74307;-68
2024/01/19 12:40:58;;;;;;;;;;;;;;;4.69;66.25;98535.62;109619;1251;70739;-69
2024/01/19 12:43:29;;;;;;;;;;;;;;;4.77;66.14;98550.15;109596;1251;74656;-67
2024/01/19 12:46:03;;;;;;;;;;;;;;;4.71;66.51;98557.55;109604;1252;62277;-70